createdAt,value
2022-11-29T00:02:04.171Z,54.55
2022-11-29T00:04:34.168Z,53.95
2022-11-29T00:07:04.007Z,51.13
2022-11-29T00:09:33.838Z,56.38
2022-11-29T00:12:12.963Z,51.25
2022-11-29T00:14:45.867Z,48.78
2022-11-29T00:17:15.949Z,55.45
2022-11-29T00:19:45.876Z,50.08
2022-11-29T00:22:15.709Z,53.10
2022-11-29T00:24:45.763Z,49.40
2022-11-29T00:27:15.787Z,50.22
2022-11-29T00:29:48.221Z,53.35
2022-11-29T00:32:18.057Z,55.22
2022-11-29T00:34:47.929Z,61.67
2022-11-29T00:37:17.831Z,58.03
2022-11-29T00:39:47.667Z,59.53
2022-11-29T00:42:17.593Z,56.95
2022-11-29T00:44:50.022Z,55.25
2022-11-29T00:47:20.024Z,57.20
2022-11-29T00:49:49.859Z,60.40
2022-11-29T00:52:19.787Z,56.63
2022-11-29T00:54:49.661Z,54.85
2022-11-29T00:57:19.522Z,52.33
2022-11-29T00:59:51.981Z,58.47
2022-11-29T01:02:21.879Z,54.90
2022-11-29T01:04:51.715Z,63.60
2022-11-29T01:07:21.611Z,54.95
2022-11-29T01:09:51.487Z,57.72
2022-11-29T01:12:21.338Z,61.42
2022-11-29T01:14:53.787Z,57.92
2022-11-29T01:17:23.643Z,56.17
2022-11-29T01:19:53.541Z,59.25
2022-11-29T01:22:23.451Z,58.42
2022-11-29T01:24:53.363Z,51.90
2022-11-29T01:27:23.217Z,57.20
2022-11-29T01:29:55.672Z,51.70
2022-11-29T01:32:25.633Z,58.05
2022-11-29T01:34:55.499Z,61.35
2022-11-29T01:37:25.342Z,55.08
2022-11-29T01:39:55.256Z,59.70
2022-11-29T01:42:25.207Z,50.30
2022-11-29T01:45:24.631Z,53.70
2022-11-29T01:47:58.176Z,56.42
2022-11-29T01:50:28.407Z,57.17
2022-11-29T01:52:58.389Z,60.80
2022-11-29T01:55:28.529Z,60.33
2022-11-29T01:57:58.719Z,59.75
2022-11-29T02:00:31.207Z,56.92
2022-11-29T02:03:06.839Z,50.45
2022-11-29T02:05:36.875Z,55.08
2022-11-29T02:08:07.178Z,55.88
2022-11-29T02:10:54.375Z,55.40
2022-11-29T02:13:35.909Z,50.40
2022-11-29T02:16:18.936Z,61.53
2022-11-29T02:18:57.366Z,57.15
2022-11-29T02:21:41.227Z,61.40
2022-11-29T02:24:48.903Z,59.78
2022-11-29T02:28:18.742Z,56.85
2022-11-29T02:31:18.478Z,59.42
2022-11-29T02:34:23.330Z,60.53
2022-11-29T02:37:31.260Z,58.63
2022-11-29T02:40:41.360Z,54.38
2022-11-29T02:43:32.750Z,61.97
2022-11-29T02:46:19.930Z,59.05
2022-11-29T02:49:04.916Z,60.10
2022-11-29T02:51:44.238Z,58.88
2022-11-29T02:54:22.793Z,62.90
2022-11-29T02:57:00.845Z,62.72
2022-11-29T02:59:45.940Z,59.53
2022-11-29T03:05:06.362Z,60.85
2022-11-29T03:07:47.852Z,60.28
2022-11-29T03:10:27.722Z,57.70
2022-11-29T03:12:58.586Z,61.42
2022-11-29T03:15:33.439Z,59.47
2022-11-29T03:18:22.840Z,59.50
2022-11-29T03:21:11.209Z,58.58
2022-11-29T03:23:47.012Z,66.40
2022-11-29T03:26:22.171Z,61.20
2022-11-29T03:29:01.162Z,63.25
2022-11-29T03:31:37.303Z,62.45
2022-11-29T03:34:16.279Z,61.80
2022-11-29T03:36:57.457Z,61.80
2022-11-29T03:39:37.886Z,61.28
2022-11-29T03:42:15.461Z,56.95
2022-11-29T03:45:00.174Z,62.92
2022-11-29T03:47:38.266Z,58.05
2022-11-29T03:50:16.081Z,63.00
2022-11-29T03:52:55.343Z,57.85
2022-11-29T03:55:36.285Z,60.22
2022-11-29T03:58:25.254Z,52.80
2022-11-29T04:01:33.342Z,61.28
2022-11-29T04:04:43.384Z,58.85
2022-11-29T04:07:37.509Z,51.38
2022-11-29T04:10:38.426Z,62.35
2022-11-29T04:13:59.683Z,57.28
2022-11-29T04:17:03.229Z,59.17
2022-11-29T04:20:28.916Z,52.25
2022-11-29T04:23:40.318Z,60.20
2022-11-29T04:26:54.158Z,53.67
2022-11-29T04:29:55.462Z,54.05
2022-11-29T04:33:07.675Z,58.13
2022-11-29T04:36:09.469Z,56.28
2022-11-29T04:39:12.181Z,57.80
2022-11-29T04:42:23.974Z,53.85
2022-11-29T04:45:50.626Z,62.40
2022-11-29T04:51:11.011Z,56.25
2022-11-29T04:53:55.319Z,55.47
2022-11-29T04:56:35.681Z,60.37
2022-11-29T04:59:16.291Z,50.03
2022-11-29T05:02:05.709Z,58.88
2022-11-29T05:04:48.357Z,57.95
2022-11-29T05:07:30.523Z,54.92
2022-11-29T05:10:14.065Z,59.08
2022-11-29T05:12:52.798Z,57.08
2022-11-29T05:15:50.947Z,55.45
2022-11-29T05:18:30.205Z,51.55
2022-11-29T05:21:09.679Z,58.00
2022-11-29T05:23:55.347Z,54.88
2022-11-29T05:26:33.566Z,58.70
2022-11-29T05:29:08.816Z,55.17
2022-11-29T05:31:59.300Z,57.33
2022-11-29T05:34:47.448Z,55.50
2022-11-29T05:37:32.347Z,57.03
2022-11-29T05:40:31.102Z,55.10
2022-11-29T05:43:19.525Z,65.22
2022-11-29T05:45:57.816Z,55.17
2022-11-29T05:48:45.056Z,60.97
2022-11-29T05:51:24.246Z,64.72
2022-11-29T05:54:03.917Z,59.10
2022-11-29T05:56:45.571Z,57.83
2022-11-29T05:59:20.996Z,58.83
2022-11-29T06:02:01.598Z,50.78
2022-11-29T06:04:58.667Z,57.90
2022-11-29T06:07:40.589Z,56.70
2022-11-29T06:10:17.788Z,53.08
2022-11-29T06:13:00.154Z,56.90
2022-11-29T06:16:05.118Z,57.60
2022-11-29T06:19:11.241Z,61.17
2022-11-29T06:21:49.129Z,56.33
2022-11-29T06:24:34.473Z,59.72
2022-11-29T06:27:24.732Z,58.00
2022-11-29T06:30:02.203Z,57.95
2022-11-29T06:32:44.054Z,61.63
2022-11-29T06:35:35.658Z,56.03
2022-11-29T06:38:18.959Z,55.42
2022-11-29T06:40:49.823Z,61.13
2022-11-29T06:43:21.121Z,54.55
2022-11-29T06:45:56.459Z,57.38
2022-11-29T06:48:29.622Z,62.90
2022-11-29T06:51:06.665Z,57.83
2022-11-29T06:53:51.899Z,64.20
2022-11-29T06:56:30.660Z,58.92
2022-11-29T06:59:08.148Z,61.00
2022-11-29T07:01:47.562Z,61.53
2022-11-29T07:04:45.437Z,62.00
2022-11-29T07:07:23.046Z,59.28
2022-11-29T07:09:59.902Z,53.33
2022-11-29T07:12:31.053Z,56.30
2022-11-29T07:15:01.707Z,53.50
2022-11-29T07:17:40.461Z,60.35
2022-11-29T07:20:18.703Z,62.03
2022-11-29T07:23:04.824Z,65.85
2022-11-29T07:25:46.464Z,58.33
2022-11-29T07:28:35.019Z,61.25
2022-11-29T07:31:13.274Z,58.30
2022-11-29T07:33:57.352Z,53.75
2022-11-29T07:36:37.526Z,58.80
2022-11-29T07:39:25.910Z,58.17
2022-11-29T07:42:06.177Z,62.97
2022-11-29T07:44:43.022Z,65.68
2022-11-29T07:47:13.042Z,56.40
2022-11-29T07:49:42.888Z,61.65
2022-11-29T07:52:14.491Z,59.33
2022-11-29T07:54:45.090Z,57.63
2022-11-29T07:57:17.802Z,55.20
2022-11-29T07:59:47.855Z,55.72
2022-11-29T08:02:17.808Z,54.15
2022-11-29T08:04:47.878Z,59.47
2022-11-29T08:07:17.912Z,56.65
2022-11-29T08:09:48.009Z,58.58
2022-11-29T08:12:20.553Z,58.35
2022-11-29T08:14:50.617Z,65.35
2022-11-29T08:17:20.465Z,58.33
2022-11-29T08:19:50.383Z,53.72
2022-11-29T08:22:20.350Z,57.85
2022-11-29T08:24:50.198Z,62.88
2022-11-29T08:27:22.679Z,57.22
2022-11-29T08:29:52.555Z,56.75
2022-11-29T08:32:22.485Z,56.63
2022-11-29T08:34:52.316Z,60.95
2022-11-29T08:37:22.198Z,60.47
2022-11-29T08:39:52.068Z,57.88
2022-11-29T08:42:24.493Z,59.17
2022-11-29T08:44:54.355Z,55.55
2022-11-29T08:47:42.454Z,54.13
2022-11-29T08:50:16.888Z,54.80
2022-11-29T08:53:01.442Z,59.42
2022-11-29T08:55:36.131Z,59.25
2022-11-29T09:00:42.401Z,58.38
2022-11-29T09:03:24.920Z,60.22
2022-11-29T09:05:55.629Z,56.15
2022-11-29T09:08:25.558Z,60.22
2022-11-29T09:10:55.451Z,61.25
2022-11-29T09:13:27.914Z,57.83
2022-11-29T09:15:57.789Z,60.38
2022-11-29T09:18:28.779Z,54.95
2022-11-29T09:20:59.457Z,59.30
2022-11-29T09:23:29.440Z,60.50
2022-11-29T09:25:59.341Z,49.03
2022-11-29T09:28:33.304Z,64.70
2022-11-29T09:31:08.793Z,58.00
2022-11-29T09:33:39.852Z,58.67
2022-11-29T09:36:12.728Z,59.47
2022-11-29T09:38:42.992Z,60.47
2022-11-29T09:41:38.098Z,57.70
2022-11-29T09:44:21.518Z,61.35
2022-11-29T09:47:02.957Z,60.00
2022-11-29T09:49:52.417Z,53.28
2022-11-29T09:52:39.561Z,63.30
2022-11-29T09:55:29.464Z,59.35
2022-11-29T09:58:01.769Z,59.38
2022-11-29T10:00:40.299Z,59.30
2022-11-29T10:03:18.059Z,62.25
2022-11-29T10:05:50.927Z,55.00
2022-11-29T10:08:28.451Z,67.32
2022-11-29T10:11:10.202Z,59.72
2022-11-29T10:13:44.226Z,60.47
2022-11-29T10:16:25.321Z,58.13
2022-11-29T10:19:02.780Z,59.60
2022-11-29T10:21:38.167Z,60.63
2022-11-29T10:24:14.853Z,53.30
2022-11-29T10:26:44.982Z,54.10
2022-11-29T10:29:17.335Z,64.40
2022-11-29T10:31:52.885Z,61.83
2022-11-29T10:34:25.765Z,54.60
2022-11-29T10:36:59.534Z,55.30
2022-11-29T10:39:37.305Z,59.00
2022-11-29T10:42:29.222Z,61.03
2022-11-29T10:44:59.927Z,62.78
2022-11-29T10:47:32.807Z,58.25
2022-11-29T10:50:03.624Z,61.42
2022-11-29T10:52:33.837Z,60.45
2022-11-29T10:55:04.919Z,55.47
2022-11-29T10:57:35.388Z,58.60
2022-11-29T11:00:10.775Z,60.72
2022-11-29T11:02:43.662Z,59.40
2022-11-29T11:05:19.434Z,67.30
2022-11-29T11:07:58.813Z,58.65
2022-11-29T11:10:31.662Z,55.20
2022-11-29T11:13:08.115Z,59.13
2022-11-29T11:15:38.854Z,64.32
2022-11-29T11:18:25.516Z,63.70
2022-11-29T11:20:58.751Z,65.30
2022-11-29T11:23:32.537Z,58.33
2022-11-29T11:26:06.366Z,63.63
2022-11-29T11:28:43.138Z,58.53
2022-11-29T11:31:14.513Z,63.30
2022-11-29T11:33:48.751Z,56.53
2022-11-29T11:36:25.929Z,55.83
2022-11-29T11:38:58.609Z,55.92
2022-11-29T11:41:44.938Z,60.05
2022-11-29T11:44:46.784Z,59.53
2022-11-29T11:47:21.445Z,59.63
2022-11-29T11:50:07.562Z,59.72
2022-11-29T11:52:48.856Z,58.25
2022-11-29T11:55:33.414Z,57.75
2022-11-29T11:58:19.662Z,62.70
2022-11-29T12:01:07.912Z,59.95
2022-11-29T12:03:51.214Z,62.55
2022-11-29T12:06:34.969Z,63.28
2022-11-29T12:09:16.572Z,64.32
2022-11-29T12:11:56.378Z,55.47
2022-11-29T12:14:35.765Z,59.67
2022-11-29T12:17:19.623Z,62.38
2022-11-29T12:20:02.240Z,61.23
2022-11-29T12:22:46.699Z,63.28
2022-11-29T12:25:24.983Z,59.95
2022-11-29T12:27:55.175Z,60.90
2022-11-29T12:30:25.218Z,63.30
2022-11-29T12:33:24.446Z,58.75
2022-11-29T12:36:30.686Z,59.53
2022-11-29T12:39:18.703Z,61.05
2022-11-29T12:41:55.748Z,56.50
2022-11-29T12:44:41.098Z,63.47
2022-11-29T12:47:38.590Z,59.30
2022-11-29T12:50:35.053Z,66.55
2022-11-29T12:53:27.503Z,60.70
2022-11-29T12:56:13.747Z,57.65
2022-11-29T12:58:59.433Z,65.78
2022-11-29T13:01:44.864Z,58.75
2022-11-29T13:04:23.559Z,59.75
2022-11-29T13:07:04.210Z,59.67
2022-11-29T13:10:00.972Z,61.42
2022-11-29T13:12:40.293Z,59.55
2022-11-29T13:15:17.846Z,61.17
2022-11-29T13:17:54.738Z,57.28
2022-11-29T13:20:38.481Z,55.70
2022-11-29T13:23:18.733Z,55.75
2022-11-29T13:25:52.230Z,64.68
2022-11-29T13:28:30.528Z,60.63
2022-11-29T13:31:05.852Z,59.85
2022-11-29T13:33:45.181Z,56.28
2022-11-29T13:36:24.286Z,61.33
2022-11-29T13:39:05.623Z,63.22
2022-11-29T13:41:42.817Z,58.53
2022-11-29T13:44:23.749Z,59.53
2022-11-29T13:47:05.970Z,57.17
2022-11-29T13:50:04.874Z,58.75
2022-11-29T13:52:42.897Z,59.15
2022-11-29T13:55:29.344Z,60.10
2022-11-29T13:58:17.496Z,61.53
2022-11-29T14:00:55.005Z,60.97
2022-11-29T14:03:34.168Z,62.35
2022-11-29T14:06:14.907Z,61.42
2022-11-29T14:09:20.261Z,58.00
2022-11-29T14:11:55.537Z,59.72
2022-11-29T14:14:31.367Z,65.20
2022-11-29T14:17:07.728Z,59.75
2022-11-29T14:19:39.592Z,55.55
2022-11-29T14:22:24.609Z,54.28
2022-11-29T14:25:21.660Z,61.28
2022-11-29T14:28:03.679Z,62.70
2022-11-29T14:30:53.874Z,56.13
2022-11-29T14:34:03.997Z,58.10
2022-11-29T14:36:53.398Z,66.10
2022-11-29T14:39:46.899Z,56.47
2022-11-29T14:42:20.290Z,59.28
2022-11-29T14:44:53.775Z,64.22
2022-11-29T14:47:32.652Z,55.42
2022-11-29T14:50:10.521Z,58.50
2022-11-29T14:52:43.121Z,58.58
2022-11-29T14:55:35.799Z,56.70
2022-11-29T14:58:23.043Z,60.63
2022-11-29T15:01:10.341Z,58.95
2022-11-29T15:03:49.888Z,59.92
2022-11-29T15:06:38.217Z,58.63
2022-11-29T15:09:22.399Z,56.38
2022-11-29T15:11:56.872Z,60.90
2022-11-29T15:14:39.206Z,62.50
2022-11-29T15:17:22.884Z,60.95
2022-11-29T15:20:09.445Z,62.88
2022-11-29T15:22:52.293Z,60.95
2022-11-29T15:25:26.011Z,69.03
2022-11-29T15:27:57.361Z,65.13
2022-11-29T15:30:34.512Z,62.40
2022-11-29T15:33:08.338Z,62.58
2022-11-29T15:35:39.694Z,64.45
2022-11-29T15:38:20.342Z,63.47
2022-11-29T15:40:55.290Z,59.17
2022-11-29T15:43:30.426Z,66.80
2022-11-29T15:46:02.048Z,69.38
2022-11-29T15:48:34.251Z,67.35
2022-11-29T15:51:13.010Z,59.40
2022-11-29T15:53:53.975Z,63.10
2022-11-29T15:56:40.215Z,66.28
2022-11-29T15:59:30.879Z,63.95
2022-11-29T16:02:04.752Z,70.70
2022-11-29T16:04:35.079Z,69.33
2022-11-29T16:07:07.570Z,59.05
2022-11-29T16:09:44.688Z,71.97
2022-11-29T16:12:19.006Z,66.57
2022-11-29T16:14:54.122Z,68.95
2022-11-29T16:17:24.839Z,70.30
2022-11-29T16:19:55.000Z,68.90
2022-11-29T16:22:26.793Z,70.65
2022-11-29T16:25:07.452Z,63.53
2022-11-29T16:27:39.246Z,70.63
2022-11-29T16:30:19.627Z,72.07
2022-11-29T16:32:55.694Z,67.32
2022-11-29T16:35:29.013Z,67.60
2022-11-29T16:38:00.232Z,70.95
2022-11-29T16:40:35.489Z,66.13
2022-11-29T16:43:25.236Z,72.95
2022-11-29T16:46:36.488Z,67.40
2022-11-29T16:49:37.802Z,71.32
2022-11-29T16:52:27.355Z,62.30
2022-11-29T16:54:57.201Z,64.97
2022-11-29T16:57:31.261Z,68.95
2022-11-29T17:00:01.263Z,70.90
2022-11-29T17:02:32.598Z,64.60
2022-11-29T17:05:02.523Z,67.45
2022-11-29T17:07:35.641Z,66.40
2022-11-29T17:10:08.597Z,76.28
2022-11-29T17:12:46.337Z,74.18
2022-11-29T17:15:17.989Z,68.72
2022-11-29T17:17:48.010Z,71.60
2022-11-29T17:20:18.279Z,72.97
2022-11-29T17:22:48.119Z,73.50
2022-11-29T17:25:18.216Z,69.07
2022-11-29T17:27:50.655Z,71.55
2022-11-29T17:30:21.099Z,67.78
2022-11-29T17:32:50.935Z,66.07
2022-11-29T17:35:20.827Z,67.10
2022-11-29T17:37:50.699Z,74.43
2022-11-29T17:40:21.317Z,73.93
2022-11-29T17:42:54.536Z,71.32
2022-11-29T17:45:24.643Z,77.05
2022-11-29T17:47:54.470Z,71.80
2022-11-29T17:50:24.462Z,72.70
2022-11-29T17:52:54.365Z,75.93
2022-11-29T17:55:26.979Z,66.18
2022-11-29T17:58:01.966Z,68.13
2022-11-29T18:00:31.801Z,68.45
2022-11-29T18:03:01.654Z,67.90
2022-11-29T18:05:34.736Z,69.85
2022-11-29T18:08:05.887Z,70.65
2022-11-29T18:10:36.340Z,71.07
2022-11-29T18:13:08.767Z,75.78
2022-11-29T18:15:38.586Z,73.70
2022-11-29T18:18:08.728Z,70.57
2022-11-29T18:20:38.579Z,70.63
2022-11-29T18:23:08.524Z,71.05
2022-11-29T18:25:39.854Z,68.72
2022-11-29T18:28:13.966Z,70.65
2022-11-29T18:30:43.812Z,70.45
2022-11-29T18:33:13.667Z,66.85
2022-11-29T18:35:43.517Z,73.03
2022-11-29T18:38:15.563Z,72.13
2022-11-29T18:40:47.739Z,74.07
2022-11-29T18:43:21.454Z,70.60
2022-11-29T18:45:51.368Z,72.70
2022-11-29T18:48:21.242Z,70.70
2022-11-29T18:50:51.122Z,75.63
2022-11-29T18:53:20.948Z,72.28
2022-11-29T18:55:50.789Z,73.72
2022-11-29T18:58:23.188Z,73.68
2022-11-29T19:00:53.253Z,77.18
2022-11-29T19:03:23.196Z,70.90
2022-11-29T19:05:54.624Z,72.72
2022-11-29T19:08:25.560Z,71.60
2022-11-29T19:10:55.411Z,72.25
2022-11-29T19:13:27.825Z,70.70
2022-11-29T19:15:58.173Z,69.25
2022-11-29T19:18:28.192Z,73.75
2022-11-29T19:21:06.646Z,70.15
2022-11-29T19:23:36.922Z,73.75
2022-11-29T19:26:07.555Z,76.20
2022-11-29T19:28:42.971Z,74.05
2022-11-29T19:31:15.116Z,75.38
2022-11-29T19:33:48.013Z,69.20
2022-11-29T19:36:20.491Z,76.85
2022-11-29T19:38:53.661Z,75.95
2022-11-29T19:41:26.887Z,81.88
2022-11-29T19:44:01.041Z,79.63
2022-11-29T19:46:34.718Z,77.07
2022-11-29T19:49:06.426Z,75.65
2022-11-29T19:51:37.076Z,74.65
2022-11-29T19:54:09.936Z,77.72
2022-11-29T19:56:39.845Z,81.05
2022-11-29T19:59:12.465Z,75.15
2022-11-29T20:01:43.257Z,74.88
2022-11-29T20:04:16.868Z,76.82
2022-11-29T20:06:47.576Z,83.25
2022-11-29T20:09:18.486Z,76.68
2022-11-29T20:11:48.363Z,65.45
2022-11-29T20:14:21.302Z,76.60
2022-11-29T20:16:51.307Z,76.65
2022-11-29T20:19:21.151Z,79.55
2022-11-29T20:21:51.850Z,78.18
2022-11-29T20:24:22.095Z,74.85
2022-11-29T20:26:52.677Z,80.93
2022-11-29T20:29:30.422Z,76.30
2022-11-29T20:32:00.262Z,74.95
2022-11-29T20:34:30.565Z,75.10
2022-11-29T20:37:30.274Z,78.35
2022-11-29T20:40:05.030Z,77.10
2022-11-29T20:45:32.050Z,75.90
2022-11-29T20:48:11.284Z,85.75
2022-11-29T20:50:42.131Z,80.20
2022-11-29T20:53:30.266Z,81.15
2022-11-29T20:56:00.413Z,86.55
2022-11-29T20:58:30.452Z,79.28
2022-11-29T21:01:03.445Z,78.93
2022-11-29T21:03:33.847Z,78.40
2022-11-29T21:06:06.118Z,78.53
2022-11-29T21:08:36.951Z,87.15
2022-11-29T21:11:10.270Z,89.05
2022-11-29T21:13:41.331Z,82.07
2022-11-29T21:16:16.163Z,88.35
2022-11-29T21:18:47.258Z,83.50
2022-11-29T21:21:26.829Z,84.53
2022-11-29T21:24:06.863Z,83.57
2022-11-29T21:26:41.935Z,76.38
2022-11-29T21:29:21.012Z,83.45
2022-11-29T21:31:57.007Z,81.43
2022-11-29T21:34:26.961Z,86.38
2022-11-29T21:37:00.075Z,75.53
2022-11-29T21:39:35.143Z,87.50
2022-11-29T21:42:05.537Z,79.75
2022-11-29T21:44:35.592Z,86.13
2022-11-29T21:47:08.450Z,76.72
2022-11-29T21:49:38.443Z,90.22
2022-11-29T21:52:08.809Z,87.60
2022-11-29T21:54:38.711Z,85.68
2022-11-29T21:57:08.575Z,82.25
2022-11-29T21:59:38.440Z,83.90
2022-11-29T22:02:11.087Z,85.82
2022-11-29T22:04:41.105Z,84.82
2022-11-29T22:07:12.138Z,88.05
2022-11-29T22:09:42.239Z,84.70
2022-11-29T22:12:32.572Z,90.70
2022-11-29T22:15:02.124Z,80.72
2022-11-29T22:17:34.767Z,87.15
2022-11-29T22:20:04.594Z,83.50
2022-11-29T22:22:34.433Z,85.00
2022-11-29T22:25:04.267Z,81.80
2022-11-29T22:27:34.151Z,89.68
2022-11-29T22:30:03.984Z,85.47
2022-11-29T22:32:36.625Z,86.45
2022-11-29T22:35:06.929Z,88.75
2022-11-29T22:37:36.780Z,90.63
2022-11-29T22:40:08.500Z,85.72
2022-11-29T22:42:38.576Z,85.28
2022-11-29T22:45:09.848Z,83.35
2022-11-29T22:47:42.295Z,83.97
2022-11-29T22:50:14.027Z,88.20
2022-11-29T22:52:43.886Z,90.95
2022-11-29T22:55:13.750Z,78.38
2022-11-29T22:57:43.573Z,85.20
2022-11-29T23:00:16.035Z,79.60
2022-11-29T23:02:48.468Z,88.68
2022-11-29T23:05:18.506Z,84.82
2022-11-29T23:07:48.631Z,79.97
2022-11-29T23:10:18.826Z,80.15
2022-11-29T23:12:48.666Z,82.18
2022-11-29T23:15:18.705Z,86.47
2022-11-29T23:17:51.153Z,87.40
2022-11-29T23:20:21.274Z,84.13
2022-11-29T23:22:51.143Z,85.90
2022-11-29T23:25:21.110Z,87.47
2022-11-29T23:27:51.014Z,93.68
2022-11-29T23:30:21.070Z,83.63
2022-11-29T23:32:53.516Z,85.28
2022-11-29T23:35:23.364Z,89.32
2022-11-29T23:37:53.225Z,91.03
2022-11-29T23:40:23.051Z,89.97
2022-11-29T23:42:54.152Z,83.88
2022-11-29T23:45:24.590Z,86.05
2022-11-29T23:47:57.076Z,88.78
2022-11-29T23:50:27.302Z,91.03
2022-11-29T23:52:57.726Z,89.20
2022-11-29T23:55:28.154Z,81.88
2022-11-29T23:57:58.072Z,88.88
